createdAt,value
2023-04-27T00:00:41.143Z,2.11
2023-04-27T00:03:08.187Z,2.08
2023-04-27T00:05:39.525Z,2.07
2023-04-27T00:08:07.019Z,2.03
2023-04-27T00:10:33.701Z,1.99
2023-04-27T00:13:01.197Z,1.93
2023-04-27T00:15:28.145Z,1.88
2023-04-27T00:17:55.171Z,1.84
2023-04-27T00:20:21.735Z,1.82
2023-04-27T00:22:48.207Z,1.79
2023-04-27T00:25:14.782Z,1.76
2023-04-27T00:27:41.209Z,1.72
2023-04-27T00:30:09.487Z,1.70
2023-04-27T00:32:36.261Z,1.67
2023-04-27T00:35:02.773Z,1.64
2023-04-27T00:37:29.232Z,1.62
2023-04-27T00:39:55.705Z,1.54
2023-04-27T00:42:24.931Z,1.51
2023-04-27T00:44:51.675Z,1.49
2023-04-27T00:47:18.340Z,1.42
2023-04-27T00:49:45.163Z,1.38
2023-04-27T00:52:11.713Z,1.34
2023-04-27T00:54:38.772Z,1.27
2023-04-27T00:57:05.409Z,1.20
2023-04-27T00:59:31.971Z,1.14
2023-04-27T01:01:59.349Z,1.11
2023-04-27T01:04:26.916Z,1.08
2023-04-27T01:06:53.703Z,1.09
2023-04-27T01:09:21.451Z,1.09
2023-04-27T01:11:49.713Z,1.09
2023-04-27T01:14:17.270Z,1.10
2023-04-27T01:16:44.332Z,1.08
2023-04-27T01:19:11.268Z,1.04
2023-04-27T01:21:37.975Z,1.02
2023-04-27T01:24:07.312Z,0.99
2023-04-27T01:26:33.946Z,1.00
2023-04-27T01:29:00.656Z,0.99
2023-04-27T01:31:27.345Z,0.97
2023-04-27T01:33:53.863Z,0.93
2023-04-27T01:36:20.346Z,0.89
2023-04-27T01:38:48.568Z,0.87
2023-04-27T01:41:15.046Z,0.85
2023-04-27T01:43:43.607Z,0.84
2023-04-27T01:46:12.672Z,0.82
2023-04-27T01:48:40.116Z,0.79
2023-04-27T01:51:06.590Z,0.74
2023-04-27T01:53:33.185Z,0.76
2023-04-27T01:56:00.363Z,0.73
2023-04-27T01:58:27.723Z,0.72
2023-04-27T02:00:54.228Z,0.64
2023-04-27T02:03:20.882Z,0.63
2023-04-27T02:05:50.421Z,0.64
2023-04-27T02:08:16.923Z,0.62
2023-04-27T02:10:44.473Z,0.61
2023-04-27T02:13:10.955Z,0.58
2023-04-27T02:15:37.479Z,0.56
2023-04-27T02:18:04.582Z,0.53
2023-04-27T02:20:31.876Z,0.50
2023-04-27T02:23:01.042Z,0.48
2023-04-27T02:25:28.152Z,0.48
2023-04-27T02:27:55.223Z,0.46
2023-04-27T02:30:22.353Z,0.45
2023-04-27T02:32:49.680Z,0.43
2023-04-27T02:35:16.285Z,0.40
2023-04-27T02:37:42.771Z,0.39
2023-04-27T02:40:09.874Z,0.35
2023-04-27T02:42:38.740Z,0.33
2023-04-27T02:45:08.511Z,0.29
2023-04-27T02:47:36.311Z,0.28
2023-04-27T02:50:03.110Z,0.26
2023-04-27T02:52:33.665Z,0.24
2023-04-27T02:55:00.315Z,0.20
2023-04-27T02:57:28.071Z,0.20
2023-04-27T02:59:54.575Z,0.18
2023-04-27T03:02:21.371Z,0.14
2023-04-27T03:04:51.620Z,0.11
2023-04-27T03:07:18.198Z,0.08
2023-04-27T03:09:44.626Z,0.05
2023-04-27T03:12:11.116Z,-0.01
2023-04-27T03:14:37.568Z,-0.01
2023-04-27T03:17:04.109Z,-0.03
2023-04-27T03:19:30.651Z,-0.05
2023-04-27T03:21:57.402Z,-0.04
2023-04-27T03:24:25.409Z,-0.06
2023-04-27T03:26:52.414Z,-0.06
2023-04-27T03:29:20.698Z,-0.08
2023-04-27T03:31:47.204Z,-0.12
2023-04-27T03:34:13.941Z,-0.14
2023-04-27T03:36:40.361Z,-0.15
2023-04-27T03:39:09.821Z,-0.14
2023-04-27T03:41:36.280Z,-0.14
2023-04-27T03:44:03.129Z,-0.17
2023-04-27T03:46:29.672Z,-0.17
2023-04-27T03:48:56.385Z,-0.20
2023-04-27T03:51:23.063Z,-0.21
2023-04-27T03:53:49.555Z,-0.20
2023-04-27T03:56:16.290Z,-0.22
2023-04-27T03:58:42.791Z,-0.22
2023-04-27T04:01:16.737Z,-0.24
2023-04-27T04:03:43.618Z,-0.27
2023-04-27T04:06:11.348Z,-0.28
2023-04-27T04:08:38.745Z,-0.29
2023-04-27T04:11:05.358Z,-0.30
2023-04-27T04:13:35.867Z,-0.34
2023-04-27T04:16:04.610Z,-0.32
2023-04-27T04:18:31.445Z,-0.31
2023-04-27T04:20:58.053Z,-0.32
2023-04-27T04:23:24.599Z,-0.37
2023-04-27T04:25:51.510Z,-0.37
2023-04-27T04:28:18.313Z,-0.38
2023-04-27T04:30:45.633Z,-0.37
2023-04-27T04:33:12.197Z,-0.36
2023-04-27T04:35:39.409Z,-0.37
2023-04-27T04:38:05.960Z,-0.37
2023-04-27T04:40:32.563Z,-0.37
2023-04-27T04:42:59.075Z,-0.34
2023-04-27T04:45:25.980Z,-0.29
2023-04-27T04:47:54.294Z,-0.23
2023-04-27T04:50:20.910Z,-0.18
2023-04-27T04:52:47.369Z,-0.12
2023-04-27T04:55:15.076Z,-0.07
2023-04-27T04:57:41.577Z,-0.03
2023-04-27T05:00:12.998Z,0.03
2023-04-27T05:02:43.080Z,0.08
2023-04-27T05:05:09.858Z,0.17
2023-04-27T05:07:37.437Z,0.23
2023-04-27T05:10:04.191Z,0.29
2023-04-27T05:12:30.952Z,0.32
2023-04-27T05:14:57.398Z,0.54
2023-04-27T05:17:24.080Z,2.10
2023-04-27T05:19:50.540Z,4.34
2023-04-27T05:22:17.052Z,5.91
2023-04-27T05:24:43.528Z,7.15
2023-04-27T05:27:09.949Z,8.04
2023-04-27T05:29:36.424Z,8.71
2023-04-27T05:32:03.216Z,9.35
2023-04-27T05:34:29.677Z,9.91
2023-04-27T05:36:56.222Z,10.43
2023-04-27T05:39:22.688Z,10.87
2023-04-27T05:41:49.239Z,11.21
2023-04-27T05:44:15.710Z,11.48
2023-04-27T05:46:42.168Z,11.69
2023-04-27T05:49:08.614Z,11.27
2023-04-27T05:51:35.376Z,11.59
2023-04-27T05:54:02.116Z,11.91
2023-04-27T05:56:28.749Z,11.92
2023-04-27T05:58:55.281Z,12.07
2023-04-27T06:01:21.733Z,12.35
2023-04-27T06:03:48.389Z,12.28
2023-04-27T06:06:15.139Z,12.05
2023-04-27T06:08:41.588Z,11.72
2023-04-27T06:11:08.060Z,11.51
2023-04-27T06:13:34.582Z,11.18
2023-04-27T06:16:01.755Z,10.62
2023-04-27T06:18:28.439Z,10.02
2023-04-27T06:20:59.991Z,9.46
2023-04-27T06:23:26.450Z,9.03
2023-04-27T06:25:52.931Z,8.71
2023-04-27T06:28:19.409Z,8.59
2023-04-27T06:30:45.857Z,8.61
2023-04-27T06:33:12.313Z,8.71
2023-04-27T06:35:38.766Z,8.61
2023-04-27T06:38:07.540Z,8.30
2023-04-27T06:40:35.538Z,8.19
2023-04-27T06:43:02.028Z,8.15
2023-04-27T06:45:28.543Z,8.17
2023-04-27T06:47:55.302Z,8.14
2023-04-27T06:50:21.833Z,8.13
2023-04-27T06:52:48.293Z,8.16
2023-04-27T06:55:14.739Z,8.23
2023-04-27T06:57:41.295Z,8.37
2023-04-27T07:00:08.873Z,8.62
2023-04-27T07:02:35.437Z,8.86
2023-04-27T07:05:02.114Z,9.09
2023-04-27T07:07:28.821Z,9.09
2023-04-27T07:09:55.548Z,9.06
2023-04-27T07:12:22.029Z,9.07
2023-04-27T07:14:50.678Z,9.20
2023-04-27T07:17:17.184Z,9.22
2023-04-27T07:19:43.635Z,9.32
2023-04-27T07:22:10.133Z,9.31
2023-04-27T07:24:36.628Z,9.28
2023-04-27T07:27:03.996Z,9.41
2023-04-27T07:29:31.291Z,9.64
2023-04-27T07:31:58.190Z,9.77
2023-04-27T07:34:24.921Z,9.87
2023-04-27T07:36:54.471Z,9.85
2023-04-27T07:39:21.316Z,9.89
2023-04-27T07:41:48.194Z,10.04
2023-04-27T07:44:15.064Z,10.22
2023-04-27T07:46:41.495Z,10.21
2023-04-27T07:49:07.977Z,10.40
2023-04-27T07:51:34.625Z,10.40
2023-04-27T07:54:03.319Z,10.36
2023-04-27T07:56:29.725Z,10.40
2023-04-27T07:58:56.660Z,10.48
2023-04-27T08:01:23.101Z,10.62
2023-04-27T08:03:49.766Z,10.76
2023-04-27T08:06:18.983Z,10.75
2023-04-27T08:08:45.656Z,10.72
2023-04-27T08:11:12.446Z,10.69
2023-04-27T08:13:38.995Z,10.78
2023-04-27T08:16:05.979Z,10.86
2023-04-27T08:18:32.677Z,11.10
2023-04-27T08:20:59.245Z,11.29
2023-04-27T08:23:29.553Z,11.31
2023-04-27T08:25:56.412Z,11.47
2023-04-27T08:28:23.471Z,11.46
2023-04-27T08:30:50.105Z,11.44
2023-04-27T08:33:16.676Z,11.51
2023-04-27T08:35:43.150Z,11.61
2023-04-27T08:38:09.667Z,11.53
2023-04-27T08:40:36.165Z,11.56
2023-04-27T08:43:02.586Z,11.61
2023-04-27T08:45:29.133Z,11.68
2023-04-27T08:47:55.739Z,11.86
2023-04-27T08:50:24.126Z,11.99
2023-04-27T08:52:50.964Z,12.12
2023-04-27T08:55:17.576Z,12.13
2023-04-27T08:57:54.857Z,12.15
2023-04-27T09:00:21.583Z,12.34
2023-04-27T09:02:48.973Z,12.39
2023-04-27T09:05:20.022Z,12.46
2023-04-27T09:08:01.323Z,12.55
2023-04-27T09:10:29.732Z,12.48
2023-04-27T09:12:58.116Z,12.64
2023-04-27T09:15:25.041Z,12.86
2023-04-27T09:17:56.565Z,12.97
2023-04-27T09:20:23.456Z,13.01
2023-04-27T09:22:53.564Z,13.15
2023-04-27T09:25:28.701Z,13.19
2023-04-27T09:27:56.440Z,13.24
2023-04-27T09:30:22.999Z,13.24
2023-04-27T09:32:57.075Z,13.42
2023-04-27T09:35:32.103Z,13.46
2023-04-27T09:37:59.774Z,13.66
2023-04-27T09:40:29.701Z,13.73
2023-04-27T09:42:58.277Z,13.92
2023-04-27T09:45:25.849Z,14.16
2023-04-27T09:47:53.135Z,14.05
2023-04-27T09:50:20.289Z,14.00
2023-04-27T09:52:47.084Z,13.95
2023-04-27T09:55:21.029Z,14.28
2023-04-27T09:57:59.060Z,14.35
2023-04-27T10:00:37.714Z,14.43
2023-04-27T10:03:15.570Z,14.64
2023-04-27T10:05:48.470Z,14.53
2023-04-27T10:08:15.472Z,14.67
2023-04-27T10:10:43.856Z,14.74
2023-04-27T10:13:21.641Z,14.40
2023-04-27T10:15:48.276Z,14.34
2023-04-27T10:18:26.238Z,14.41
2023-04-27T10:20:52.960Z,14.41
2023-04-27T10:23:26.884Z,14.47
2023-04-27T10:25:54.261Z,14.64
2023-04-27T10:28:21.361Z,14.67
2023-04-27T10:30:49.126Z,14.80
2023-04-27T10:33:17.672Z,14.70
2023-04-27T10:35:56.193Z,14.81
2023-04-27T10:38:28.864Z,15.10
2023-04-27T10:41:04.944Z,15.25
2023-04-27T10:43:34.214Z,15.38
2023-04-27T10:46:11.756Z,15.71
2023-04-27T10:48:43.379Z,15.73
2023-04-27T10:51:10.122Z,15.93
2023-04-27T10:53:37.572Z,15.70
2023-04-27T10:56:06.675Z,15.79
2023-04-27T10:58:47.400Z,15.60
2023-04-27T11:01:25.733Z,15.77
2023-04-27T11:04:01.062Z,16.00
2023-04-27T11:06:28.848Z,16.08
2023-04-27T11:08:55.584Z,15.95
2023-04-27T11:11:22.582Z,15.91
2023-04-27T11:13:49.997Z,16.04
2023-04-27T11:16:16.788Z,16.07
2023-04-27T11:18:43.279Z,15.89
2023-04-27T11:21:10.533Z,15.88
2023-04-27T11:23:38.649Z,15.87
2023-04-27T11:26:26.234Z,16.06
2023-04-27T11:29:01.553Z,16.23
2023-04-27T11:31:38.242Z,16.08
2023-04-27T11:34:04.820Z,16.28
2023-04-27T11:36:31.695Z,16.39
2023-04-27T11:39:00.004Z,16.26
2023-04-27T11:41:37.213Z,16.30
2023-04-27T11:44:07.851Z,16.36
2023-04-27T11:46:36.596Z,16.15
2023-04-27T11:49:08.611Z,15.87
2023-04-27T11:51:36.105Z,15.58
2023-04-27T11:54:04.460Z,15.34
2023-04-27T11:56:41.878Z,15.51
2023-04-27T11:59:23.115Z,15.83
2023-04-27T12:01:51.425Z,16.05
2023-04-27T12:04:18.176Z,15.78
2023-04-27T12:06:45.103Z,15.93
2023-04-27T12:09:11.666Z,16.01
2023-04-27T12:11:38.571Z,15.87
2023-04-27T12:14:05.076Z,15.79
2023-04-27T12:16:31.834Z,15.83
2023-04-27T12:18:58.408Z,15.93
2023-04-27T12:21:25.159Z,16.02
2023-04-27T12:23:51.606Z,16.04
2023-04-27T12:26:18.391Z,15.93
2023-04-27T12:28:44.929Z,15.84
2023-04-27T12:31:16.266Z,15.77
2023-04-27T12:33:42.823Z,15.69
2023-04-27T12:36:09.363Z,15.87
2023-04-27T12:38:36.202Z,15.91
2023-04-27T12:41:02.672Z,16.03
2023-04-27T12:43:29.183Z,16.06
2023-04-27T12:45:56.259Z,15.91
2023-04-27T12:48:23.437Z,15.91
2023-04-27T12:50:50.212Z,16.13
2023-04-27T12:53:16.858Z,16.23
2023-04-27T12:55:43.359Z,16.27
2023-04-27T12:58:09.788Z,16.12
2023-04-27T13:00:36.251Z,16.22
2023-04-27T13:03:02.976Z,16.15
2023-04-27T13:05:31.717Z,16.17
2023-04-27T13:07:58.763Z,16.15
2023-04-27T13:10:25.408Z,16.20
2023-04-27T13:12:51.914Z,16.09
2023-04-27T13:15:18.462Z,15.87
2023-04-27T13:17:44.930Z,15.96
2023-04-27T13:20:12.048Z,16.07
2023-04-27T13:22:40.618Z,16.11
2023-04-27T13:25:08.381Z,16.28
2023-04-27T13:27:35.589Z,16.28
2023-04-27T13:30:02.208Z,16.27
2023-04-27T13:32:28.816Z,16.28
2023-04-27T13:34:55.458Z,16.27
2023-04-27T13:37:22.132Z,16.20
2023-04-27T13:39:48.558Z,16.14
2023-04-27T13:42:15.038Z,16.02
2023-04-27T13:44:41.491Z,15.96
2023-04-27T13:47:08.129Z,15.93
2023-04-27T13:49:34.639Z,15.85
2023-04-27T13:52:03.458Z,15.87
2023-04-27T13:54:29.978Z,15.88
2023-04-27T13:56:57.489Z,16.01
2023-04-27T13:59:24.300Z,16.06
2023-04-27T14:01:50.832Z,16.06
2023-04-27T14:04:17.419Z,16.05
2023-04-27T14:06:44.118Z,15.98
2023-04-27T14:09:10.673Z,15.85
2023-04-27T14:11:48.910Z,15.97
2023-04-27T14:14:22.550Z,16.11
2023-04-27T14:16:50.967Z,15.97
2023-04-27T14:19:18.567Z,16.02
2023-04-27T14:21:45.041Z,16.23
2023-04-27T14:24:11.516Z,16.44
2023-04-27T14:26:37.916Z,16.41
2023-04-27T14:29:04.469Z,16.40
2023-04-27T14:31:31.612Z,16.44
2023-04-27T14:33:58.171Z,16.50
2023-04-27T14:36:24.741Z,16.63
2023-04-27T14:38:51.202Z,16.61
2023-04-27T14:41:17.632Z,16.70
2023-04-27T14:43:46.179Z,16.64
2023-04-27T14:48:46.861Z,16.12
2023-04-27T14:51:13.927Z,16.06
2023-04-27T14:53:40.525Z,16.01
2023-04-27T14:56:07.219Z,16.04
2023-04-27T14:58:33.827Z,15.94
2023-04-27T15:01:01.653Z,15.97
2023-04-27T15:03:28.754Z,15.92
2023-04-27T15:05:55.477Z,15.89
2023-04-27T15:08:22.275Z,15.96
2023-04-27T15:10:48.791Z,15.96
2023-04-27T15:13:15.256Z,15.98
2023-04-27T15:15:41.869Z,15.87
2023-04-27T15:18:08.455Z,15.97
2023-04-27T15:20:34.934Z,16.07
2023-04-27T15:23:01.383Z,16.02
2023-04-27T15:25:27.902Z,15.91
2023-04-27T15:27:54.386Z,15.86
2023-04-27T15:30:20.976Z,15.89
2023-04-27T15:32:47.894Z,15.74
2023-04-27T15:35:14.358Z,15.56
2023-04-27T15:37:40.946Z,15.47
2023-04-27T15:40:08.726Z,15.42
2023-04-27T15:42:35.327Z,15.37
2023-04-27T15:45:02.052Z,15.24
2023-04-27T15:47:28.490Z,15.19
2023-04-27T15:49:57.905Z,15.21
2023-04-27T15:52:26.810Z,15.15
2023-04-27T15:54:53.332Z,15.17
2023-04-27T15:57:19.848Z,15.11
2023-04-27T15:59:46.309Z,15.16
2023-04-27T16:02:13.693Z,15.22
2023-04-27T16:04:40.217Z,15.12
2023-04-27T16:07:07.236Z,15.13
2023-04-27T16:09:34.139Z,14.95
2023-04-27T16:12:01.817Z,14.85
2023-04-27T16:14:28.358Z,14.82
2023-04-27T16:16:56.182Z,14.83
2023-04-27T16:19:23.507Z,14.83
2023-04-27T16:21:50.222Z,14.74
2023-04-27T16:24:16.842Z,14.60
2023-04-27T16:26:43.352Z,14.45
2023-04-27T16:29:09.896Z,14.41
2023-04-27T16:31:36.352Z,14.49
2023-04-27T16:34:03.927Z,14.41
2023-04-27T16:36:32.859Z,14.42
2023-04-27T16:39:00.198Z,14.38
2023-04-27T16:41:26.841Z,14.33
2023-04-27T16:43:53.381Z,14.38
2023-04-27T16:46:19.929Z,14.33
2023-04-27T16:48:46.437Z,14.31
2023-04-27T16:51:12.984Z,14.20
2023-04-27T16:53:39.514Z,14.15
2023-04-27T16:56:06.658Z,14.13
2023-04-27T16:58:36.026Z,14.13
2023-04-27T17:01:02.572Z,14.07
2023-04-27T17:03:29.894Z,14.02
2023-04-27T17:05:56.619Z,13.97
2023-04-27T17:08:25.282Z,13.96
2023-04-27T17:10:53.001Z,13.92
2023-04-27T17:13:19.466Z,13.95
2023-04-27T17:15:46.107Z,13.89
2023-04-27T17:18:12.564Z,13.85
2023-04-27T17:20:40.982Z,13.91
2023-04-27T17:23:08.751Z,13.83
2023-04-27T17:25:35.224Z,13.86
2023-04-27T17:28:01.884Z,13.84
2023-04-27T17:30:28.468Z,13.74
2023-04-27T17:32:54.923Z,13.61
2023-04-27T17:35:21.634Z,13.53
2023-04-27T17:37:48.105Z,13.44
2023-04-27T17:40:16.333Z,13.37
2023-04-27T17:42:42.787Z,13.30
2023-04-27T17:45:09.606Z,13.25
2023-04-27T17:47:36.452Z,13.22
2023-04-27T17:50:03.010Z,13.14
2023-04-27T17:52:29.544Z,13.06
2023-04-27T17:54:56.482Z,12.98
2023-04-27T17:57:23.142Z,12.95
2023-04-27T17:59:51.835Z,12.92
2023-04-27T18:02:18.914Z,12.87
2023-04-27T18:04:45.563Z,12.81
2023-04-27T18:07:12.546Z,12.73
2023-04-27T18:09:38.946Z,12.69
2023-04-27T18:12:10.792Z,12.64
2023-04-27T18:14:38.405Z,12.66
2023-04-27T18:17:05.190Z,12.58
2023-04-27T18:19:31.724Z,12.52
2023-04-27T18:22:03.951Z,12.41
2023-04-27T18:24:30.437Z,12.36
2023-04-27T18:26:57.827Z,12.30
2023-04-27T18:29:24.329Z,12.28
2023-04-27T18:31:51.530Z,12.24
2023-04-27T18:34:18.058Z,12.22
2023-04-27T18:36:50.198Z,12.13
2023-04-27T18:39:18.191Z,12.07
2023-04-27T18:41:44.701Z,12.06
2023-04-27T18:44:11.198Z,12.03
2023-04-27T18:46:38.851Z,11.96
2023-04-27T18:49:05.542Z,11.88
2023-04-27T18:51:32.041Z,11.86
2023-04-27T18:53:58.525Z,11.80
2023-04-27T18:56:24.974Z,11.76
2023-04-27T18:58:51.580Z,11.73
2023-04-27T19:01:23.505Z,11.73
2023-04-27T19:03:50.340Z,11.68
2023-04-27T19:06:18.986Z,11.67
2023-04-27T19:08:47.321Z,11.65
2023-04-27T19:11:14.022Z,11.60
2023-04-27T19:13:42.959Z,11.55
2023-04-27T19:16:10.312Z,11.51
2023-04-27T19:18:36.937Z,11.49
2023-04-27T19:21:04.146Z,11.46
2023-04-27T19:23:30.625Z,11.45
2023-04-27T19:26:02.710Z,11.45
2023-04-27T19:28:36.780Z,11.40
2023-04-27T19:31:03.291Z,11.38
2023-04-27T19:33:29.728Z,11.29
2023-04-27T19:35:58.303Z,11.23
2023-04-27T19:38:25.547Z,11.19
2023-04-27T19:40:52.556Z,11.15
2023-04-27T19:43:19.035Z,11.14
2023-04-27T19:45:45.551Z,11.15
2023-04-27T19:48:12.107Z,11.11
2023-04-27T19:50:41.392Z,11.07
2023-04-27T19:53:07.988Z,11.05
2023-04-27T19:55:34.914Z,11.00
2023-04-27T19:58:01.369Z,11.01
2023-04-27T20:00:27.902Z,10.96
2023-04-27T20:02:54.630Z,10.93
2023-04-27T20:05:21.889Z,10.93
2023-04-27T20:07:49.974Z,10.89
2023-04-27T20:10:16.721Z,10.85
2023-04-27T20:12:55.192Z,10.83
2023-04-27T20:15:24.190Z,10.81
2023-04-27T20:17:50.869Z,10.79
2023-04-27T20:20:18.058Z,10.72
2023-04-27T20:22:45.451Z,10.68
2023-04-27T20:25:14.386Z,10.66
2023-04-27T20:27:41.276Z,10.61
2023-04-27T20:30:08.404Z,10.58
2023-04-27T20:32:34.859Z,10.54
2023-04-27T20:35:02.453Z,10.52
2023-04-27T20:37:29.043Z,10.49
2023-04-27T20:39:55.798Z,10.48
2023-04-27T20:42:22.465Z,10.46
2023-04-27T20:44:48.942Z,10.42
2023-04-27T20:47:15.594Z,10.40
2023-04-27T20:49:42.264Z,10.39
2023-04-27T20:52:08.851Z,10.38
2023-04-27T20:54:36.137Z,10.33
2023-04-27T20:57:02.853Z,10.28
2023-04-27T20:59:29.266Z,10.25
2023-04-27T21:01:56.458Z,10.22
2023-04-27T21:04:22.969Z,10.19
2023-04-27T21:06:49.635Z,10.17
2023-04-27T21:09:16.122Z,10.13
2023-04-27T21:11:42.570Z,10.11
2023-04-27T21:14:09.061Z,10.11
2023-04-27T21:16:35.623Z,10.11
2023-04-27T21:19:02.167Z,10.16
2023-04-27T21:21:28.655Z,10.16
2023-04-27T21:24:19.028Z,10.12
2023-04-27T21:26:42.246Z,10.04
2023-04-27T21:29:08.789Z,10.01
2023-04-27T21:31:35.557Z,9.96
2023-04-27T21:34:03.529Z,9.93
2023-04-27T21:36:30.396Z,9.91
2023-04-27T21:38:59.775Z,9.88
2023-04-27T21:41:26.656Z,9.84
2023-04-27T21:43:53.067Z,9.80
2023-04-27T21:46:19.743Z,9.79
2023-04-27T21:48:46.253Z,9.77
2023-04-27T21:51:12.656Z,9.76
2023-04-27T21:53:39.202Z,9.72
2023-04-27T21:56:06.481Z,9.68
2023-04-27T21:58:32.986Z,9.67
2023-04-27T22:00:59.440Z,9.64
2023-04-27T22:03:26.308Z,9.63
2023-04-27T22:05:52.955Z,9.64
2023-04-27T22:08:19.625Z,9.62
2023-04-27T22:10:47.151Z,9.59
2023-04-27T22:15:43.029Z,9.59
2023-04-27T22:18:09.551Z,9.57
2023-04-27T22:20:36.056Z,9.56
2023-04-27T22:23:02.536Z,9.55
2023-04-27T22:25:29.550Z,9.52
2023-04-27T22:27:56.443Z,9.51
2023-04-27T22:30:23.032Z,9.49
2023-04-27T22:32:50.253Z,9.49
2023-04-27T22:35:25.420Z,9.48
2023-04-27T22:37:54.898Z,9.47
2023-04-27T22:40:21.439Z,9.44
2023-04-27T22:42:47.931Z,9.43
2023-04-27T22:45:14.527Z,9.40
2023-04-27T22:47:41.356Z,9.37
2023-04-27T22:50:10.237Z,9.37
2023-04-27T22:52:37.441Z,9.36
2023-04-27T22:55:04.476Z,9.35
2023-04-27T22:57:31.028Z,9.32
2023-04-27T22:59:57.593Z,9.31
2023-04-27T23:02:24.185Z,9.30
2023-04-27T23:04:50.952Z,9.28
2023-04-27T23:07:18.338Z,9.28
2023-04-27T23:09:45.734Z,9.26
2023-04-27T23:12:12.199Z,9.25
2023-04-27T23:14:39.953Z,9.25
2023-04-27T23:17:07.384Z,9.24
2023-04-27T23:19:34.563Z,9.22
2023-04-27T23:22:01.782Z,9.19
2023-04-27T23:24:29.314Z,9.16
2023-04-27T23:26:55.984Z,9.14
2023-04-27T23:29:22.488Z,9.15
2023-04-27T23:31:49.123Z,9.14
2023-04-27T23:34:16.107Z,9.10
2023-04-27T23:36:43.009Z,9.08
2023-04-27T23:39:09.519Z,9.07
2023-04-27T23:41:36.030Z,9.03
2023-04-27T23:44:02.727Z,9.03
2023-04-27T23:46:29.213Z,9.01
2023-04-27T23:48:55.742Z,8.99
2023-04-27T23:51:22.258Z,8.98
2023-04-27T23:53:48.696Z,8.96
2023-04-27T23:56:19.334Z,8.95
2023-04-27T23:58:46.048Z,8.91
